createdAt,value
2023-03-31T04:04:32.904Z,10.90
2023-03-31T04:07:01.113Z,10.80
2023-03-31T04:09:29.831Z,10.80
2023-03-31T04:11:58.280Z,10.80
2023-03-31T04:14:26.992Z,10.80
2023-03-31T04:16:58.787Z,10.80
2023-03-31T04:19:27.669Z,10.80
2023-03-31T04:22:02.985Z,10.80
2023-03-31T04:24:33.142Z,10.80
2023-03-31T04:27:03.176Z,10.80
2023-03-31T04:29:33.857Z,10.80
2023-03-31T04:32:03.191Z,10.70
2023-03-31T04:34:36.073Z,10.80
2023-03-31T04:37:10.779Z,10.80
2023-03-31T04:39:39.419Z,10.80
2023-03-31T04:42:08.011Z,10.80
2023-03-31T04:44:36.243Z,10.80
2023-03-31T04:47:06.993Z,10.80
2023-03-31T04:49:36.039Z,10.80
2023-03-31T04:52:06.638Z,10.80
2023-03-31T04:54:35.206Z,10.80
2023-03-31T04:57:03.600Z,10.80
2023-03-31T04:59:32.044Z,10.80
2023-03-31T05:02:00.429Z,10.80
2023-03-31T05:04:28.753Z,10.80
2023-03-31T05:06:58.784Z,10.70
2023-03-31T05:09:29.343Z,10.70
2023-03-31T05:11:58.695Z,10.70
2023-03-31T05:14:27.191Z,10.80
2023-03-31T05:16:59.410Z,10.80
2023-03-31T05:19:27.854Z,10.80
2023-03-31T05:21:56.352Z,10.70
2023-03-31T05:24:25.100Z,10.70
2023-03-31T05:26:56.040Z,10.60
2023-03-31T05:29:24.802Z,10.70
2023-03-31T05:31:54.081Z,10.70
2023-03-31T05:34:23.148Z,10.70
2023-03-31T05:36:54.050Z,10.70
2023-03-31T05:39:22.758Z,10.70
2023-03-31T05:41:51.246Z,10.80
2023-03-31T05:44:21.675Z,10.70
2023-03-31T05:46:49.880Z,10.70
2023-03-31T05:49:18.307Z,10.70
2023-03-31T05:51:46.860Z,10.70
2023-03-31T05:54:15.230Z,10.70
2023-03-31T05:56:43.803Z,10.70
2023-03-31T05:59:12.241Z,10.70
2023-03-31T06:01:42.255Z,10.60
2023-03-31T06:04:10.924Z,10.70
2023-03-31T06:06:39.510Z,10.70
2023-03-31T06:09:07.905Z,10.70
2023-03-31T06:11:36.528Z,10.60
2023-03-31T06:14:04.987Z,10.60
2023-03-31T06:16:46.925Z,10.70
2023-03-31T06:19:17.529Z,10.70
2023-03-31T06:21:46.097Z,10.70
2023-03-31T06:24:14.514Z,10.70
2023-03-31T06:26:43.229Z,10.70
2023-03-31T06:29:11.468Z,10.70
2023-03-31T06:31:39.907Z,10.70
2023-03-31T06:34:09.047Z,10.60
2023-03-31T06:36:39.172Z,10.60
2023-03-31T06:39:07.632Z,10.60
2023-03-31T06:41:36.024Z,10.60
2023-03-31T06:44:04.674Z,10.60
2023-03-31T06:46:33.011Z,10.60
2023-03-31T06:49:01.556Z,10.60
2023-03-31T06:51:32.592Z,10.60
2023-03-31T06:54:03.485Z,10.60
2023-03-31T06:56:32.044Z,10.60
2023-03-31T06:59:00.842Z,10.60
2023-03-31T07:01:29.946Z,10.50
2023-03-31T07:03:58.285Z,10.50
2023-03-31T07:06:27.272Z,10.60
2023-03-31T07:08:56.152Z,10.60
2023-03-31T07:11:26.808Z,10.50
2023-03-31T07:13:55.353Z,10.50
2023-03-31T07:16:24.098Z,10.50
2023-03-31T07:18:54.823Z,10.50
2023-03-31T07:21:23.361Z,10.50
2023-03-31T07:23:52.094Z,10.50
2023-03-31T07:26:21.072Z,10.40
2023-03-31T07:28:52.305Z,10.40
2023-03-31T07:31:20.683Z,10.30
2023-03-31T07:33:49.137Z,10.40
2023-03-31T07:36:18.189Z,10.50
2023-03-31T07:38:49.525Z,10.50
2023-03-31T07:41:19.360Z,10.50
2023-03-31T07:43:48.785Z,10.40
2023-03-31T07:46:21.024Z,10.50
2023-03-31T07:48:52.132Z,10.50
2023-03-31T07:51:22.871Z,10.50
2023-03-31T07:53:52.641Z,10.50
2023-03-31T07:56:22.912Z,10.50
2023-03-31T07:58:55.162Z,10.40
2023-03-31T08:01:29.170Z,10.50
2023-03-31T08:03:59.202Z,10.50
2023-03-31T08:06:29.241Z,10.50
2023-03-31T08:08:58.509Z,10.50
2023-03-31T08:11:27.568Z,10.50
2023-03-31T08:13:56.020Z,10.60
2023-03-31T08:16:26.111Z,10.50
2023-03-31T08:18:55.312Z,10.50
2023-03-31T08:21:24.776Z,10.50
2023-03-31T08:23:55.631Z,10.60
2023-03-31T08:26:25.493Z,10.60
2023-03-31T08:28:54.681Z,10.60
2023-03-31T08:31:26.640Z,10.60
2023-03-31T08:33:57.578Z,10.70
2023-03-31T08:36:27.416Z,10.70
2023-03-31T08:38:56.133Z,10.80
2023-03-31T08:41:34.515Z,10.70
2023-03-31T08:44:06.586Z,10.80
2023-03-31T08:46:35.784Z,10.80
2023-03-31T08:49:06.246Z,10.80
2023-03-31T08:51:37.104Z,10.90
2023-03-31T08:54:08.140Z,10.90
2023-03-31T08:56:39.253Z,11.00
2023-03-31T08:59:08.343Z,11.00
2023-03-31T09:01:52.778Z,11.00
2023-03-31T09:04:58.809Z,11.00
2023-03-31T09:07:35.075Z,11.00
2023-03-31T09:10:13.259Z,11.10
2023-03-31T09:12:50.115Z,11.10
2023-03-31T09:15:26.696Z,11.20
2023-03-31T09:17:56.645Z,11.30
2023-03-31T09:20:29.982Z,11.30
2023-03-31T09:23:03.392Z,11.40
2023-03-31T09:25:35.296Z,11.40
2023-03-31T09:28:05.697Z,11.50
2023-03-31T09:30:35.957Z,11.50
2023-03-31T09:33:13.377Z,11.50
2023-03-31T09:35:44.412Z,11.60
2023-03-31T09:38:20.517Z,11.60
2023-03-31T09:40:49.287Z,11.60
2023-03-31T09:43:22.826Z,11.70
2023-03-31T09:46:07.639Z,11.70
2023-03-31T09:48:37.526Z,11.70
2023-03-31T09:51:09.357Z,11.80
2023-03-31T09:53:41.946Z,11.80
2023-03-31T09:56:12.562Z,11.80
2023-03-31T09:58:43.721Z,11.80
2023-03-31T10:01:13.307Z,11.80
2023-03-31T10:03:51.222Z,11.80
2023-03-31T10:06:21.872Z,11.80
2023-03-31T10:08:52.466Z,11.80
2023-03-31T10:11:22.122Z,11.80
2023-03-31T10:13:52.078Z,11.80
2023-03-31T10:16:24.606Z,11.90
2023-03-31T10:19:06.608Z,11.90
2023-03-31T10:21:38.999Z,12.00
2023-03-31T10:24:10.620Z,12.00
2023-03-31T10:26:39.048Z,12.00
2023-03-31T10:29:12.973Z,12.10
2023-03-31T10:31:41.796Z,12.10
2023-03-31T10:34:17.068Z,12.10
2023-03-31T10:36:48.717Z,12.10
2023-03-31T10:39:17.953Z,12.20
2023-03-31T10:41:52.961Z,12.10
2023-03-31T10:44:36.632Z,12.10
2023-03-31T10:47:20.498Z,12.00
2023-03-31T10:49:51.828Z,12.10
2023-03-31T10:52:23.318Z,12.10
2023-03-31T10:54:54.631Z,12.20
2023-03-31T10:57:31.008Z,12.30
2023-03-31T11:00:15.349Z,12.50
2023-03-31T11:03:04.322Z,12.70
2023-03-31T11:05:38.052Z,13.10
2023-03-31T11:08:20.144Z,13.20
2023-03-31T11:11:00.463Z,13.50
2023-03-31T11:13:36.156Z,13.60
2023-03-31T11:16:12.552Z,13.80
2023-03-31T11:18:52.440Z,14.00
2023-03-31T11:21:25.449Z,14.40
2023-03-31T11:24:02.285Z,14.30
2023-03-31T11:26:40.528Z,14.30
2023-03-31T11:29:17.608Z,14.20
2023-03-31T11:31:52.801Z,13.80
2023-03-31T11:34:40.117Z,13.60
2023-03-31T11:37:21.669Z,12.60
2023-03-31T11:39:59.952Z,12.20
2023-03-31T11:42:30.552Z,12.10
2023-03-31T11:45:01.701Z,12.00
2023-03-31T11:47:33.252Z,11.90
2023-03-31T11:50:04.635Z,11.90
2023-03-31T11:52:35.521Z,12.00
2023-03-31T11:55:08.178Z,12.00
2023-03-31T11:57:41.220Z,12.00
2023-03-31T12:00:18.134Z,12.00
2023-03-31T12:02:52.715Z,12.10
2023-03-31T12:05:22.934Z,12.20
2023-03-31T12:07:56.257Z,12.20
2023-03-31T12:10:34.346Z,12.40
2023-03-31T12:13:09.345Z,12.50
2023-03-31T12:15:42.113Z,12.60
2023-03-31T12:18:13.961Z,12.70
2023-03-31T12:20:44.494Z,12.80
2023-03-31T12:23:15.041Z,12.70
2023-03-31T12:25:52.574Z,12.70
2023-03-31T12:28:21.630Z,12.80
2023-03-31T12:30:51.326Z,12.80
2023-03-31T12:33:23.305Z,12.80
2023-03-31T12:36:06.604Z,12.80
2023-03-31T12:38:43.540Z,12.90
2023-03-31T12:41:17.901Z,12.80
2023-03-31T12:44:08.906Z,12.90
2023-03-31T12:47:12.532Z,12.90
2023-03-31T12:50:22.004Z,12.90
2023-03-31T12:52:56.526Z,12.90
2023-03-31T12:55:34.378Z,12.90
2023-03-31T12:58:39.366Z,12.80
2023-03-31T13:01:11.308Z,12.70
2023-03-31T13:04:09.927Z,12.70
2023-03-31T13:06:54.910Z,12.70
2023-03-31T13:09:45.569Z,12.60
2023-03-31T13:12:18.825Z,12.80
2023-03-31T13:14:52.016Z,12.80
2023-03-31T13:17:26.564Z,12.70
2023-03-31T13:19:55.752Z,12.70
2023-03-31T13:22:33.279Z,12.80
2023-03-31T13:25:47.726Z,12.80
2023-03-31T13:28:28.305Z,12.90
2023-03-31T13:31:03.318Z,13.10
2023-03-31T13:33:38.914Z,13.20
2023-03-31T13:36:43.006Z,13.10
2023-03-31T13:39:36.317Z,13.00
2023-03-31T13:42:21.154Z,13.00
2023-03-31T13:45:12.355Z,12.90
2023-03-31T13:48:06.256Z,12.90
2023-03-31T13:51:03.528Z,12.90
2023-03-31T13:53:48.526Z,13.00
2023-03-31T13:56:45.086Z,13.00
2023-03-31T13:59:24.495Z,13.10
2023-03-31T14:02:07.675Z,13.10
2023-03-31T14:05:01.267Z,13.20
2023-03-31T14:07:33.554Z,13.20
2023-03-31T14:10:03.006Z,13.20
2023-03-31T14:12:38.707Z,13.20
2023-03-31T14:15:09.483Z,13.20
2023-03-31T14:17:40.659Z,13.20
2023-03-31T14:20:24.197Z,13.10
2023-03-31T14:22:59.722Z,13.10
2023-03-31T14:25:41.256Z,13.00
2023-03-31T14:28:25.833Z,13.00
2023-03-31T14:31:03.112Z,13.10
2023-03-31T14:33:37.994Z,13.10
2023-03-31T14:36:16.034Z,13.10
2023-03-31T14:38:45.211Z,13.00
2023-03-31T14:41:20.396Z,13.00
2023-03-31T14:43:51.037Z,13.10
2023-03-31T14:46:22.831Z,13.00
2023-03-31T14:48:52.776Z,13.10
2023-03-31T14:51:28.158Z,13.10
2023-03-31T14:53:59.849Z,13.10
2023-03-31T14:56:33.963Z,13.10
2023-03-31T14:59:03.873Z,13.10
2023-03-31T15:01:36.056Z,13.10
2023-03-31T15:04:08.498Z,13.10
2023-03-31T15:06:40.022Z,13.10
2023-03-31T15:09:08.830Z,13.10
2023-03-31T15:11:37.506Z,13.00
2023-03-31T15:14:06.136Z,12.90
2023-03-31T15:16:42.577Z,12.90
2023-03-31T15:19:17.534Z,12.80
2023-03-31T15:21:49.125Z,12.80
2023-03-31T15:24:17.993Z,12.80
2023-03-31T15:26:49.911Z,12.70
2023-03-31T15:29:21.250Z,12.70
2023-03-31T15:31:50.062Z,12.70
2023-03-31T15:34:25.023Z,12.60
2023-03-31T15:36:57.585Z,12.50
2023-03-31T15:39:26.932Z,12.40
2023-03-31T15:41:56.633Z,12.30
2023-03-31T15:44:40.217Z,12.10
2023-03-31T15:47:14.764Z,12.00
2023-03-31T15:49:54.115Z,12.10
2023-03-31T15:52:28.600Z,12.00
2023-03-31T15:54:57.947Z,12.00
2023-03-31T15:57:33.960Z,11.90
2023-03-31T16:00:02.686Z,11.90
2023-03-31T16:02:41.705Z,11.90
2023-03-31T16:05:27.168Z,11.90
2023-03-31T16:08:17.815Z,11.90
2023-03-31T16:10:46.564Z,11.90
2023-03-31T16:13:23.404Z,11.90
2023-03-31T16:15:53.607Z,11.80
2023-03-31T16:18:29.676Z,11.80
2023-03-31T16:21:01.464Z,11.80
2023-03-31T16:23:33.476Z,11.80
2023-03-31T16:26:02.494Z,11.80
2023-03-31T16:28:34.808Z,11.70
2023-03-31T16:31:03.662Z,11.70
2023-03-31T16:33:33.154Z,11.70
2023-03-31T16:36:04.296Z,11.70
2023-03-31T16:38:34.245Z,11.70
2023-03-31T16:41:02.486Z,11.70
2023-03-31T16:43:33.959Z,11.80
2023-03-31T16:46:03.611Z,11.80
2023-03-31T16:48:33.836Z,11.80
2023-03-31T16:51:02.756Z,11.70
2023-03-31T16:53:34.670Z,11.70
2023-03-31T16:56:03.345Z,11.70
2023-03-31T16:58:32.150Z,11.70
2023-03-31T17:01:00.988Z,11.70
2023-03-31T17:03:29.875Z,11.60
2023-03-31T17:05:59.510Z,11.60
2023-03-31T17:08:28.918Z,11.60
2023-03-31T17:11:02.582Z,11.60
2023-03-31T17:13:31.236Z,11.60
2023-03-31T17:16:13.087Z,11.40
2023-03-31T17:18:45.818Z,11.50
2023-03-31T17:21:16.695Z,11.50
2023-03-31T17:23:44.859Z,11.40
2023-03-31T17:26:15.492Z,11.50
2023-03-31T17:28:44.176Z,11.50
2023-03-31T17:31:13.516Z,11.50
2023-03-31T17:33:42.070Z,11.40
2023-03-31T17:36:12.634Z,11.40
2023-03-31T17:38:42.109Z,11.40
2023-03-31T17:41:17.978Z,11.30
2023-03-31T17:43:47.282Z,11.40
2023-03-31T17:46:16.569Z,11.40
2023-03-31T17:48:45.095Z,11.40
2023-03-31T17:51:16.305Z,11.40
2023-03-31T17:53:45.891Z,11.40
2023-03-31T17:56:16.896Z,11.30
2023-03-31T17:58:46.054Z,11.30
2023-03-31T18:01:14.962Z,11.30
2023-03-31T18:03:45.192Z,11.30
2023-03-31T18:06:14.673Z,11.20
2023-03-31T18:08:43.582Z,11.30
2023-03-31T18:11:13.626Z,11.20
2023-03-31T18:13:44.959Z,11.20
2023-03-31T18:16:13.557Z,11.20
2023-03-31T18:18:42.747Z,11.20
2023-03-31T18:21:13.324Z,11.20
2023-03-31T18:23:42.701Z,11.10
2023-03-31T18:26:13.321Z,11.10
2023-03-31T18:28:43.848Z,11.00
2023-03-31T18:31:14.226Z,11.10
2023-03-31T18:33:44.146Z,11.00
2023-03-31T18:36:18.022Z,11.00
2023-03-31T18:38:47.317Z,11.00
2023-03-31T18:41:16.368Z,11.00
2023-03-31T18:43:47.648Z,11.00
2023-03-31T18:46:15.979Z,11.00
2023-03-31T18:48:45.138Z,11.00
2023-03-31T18:51:13.631Z,11.00
2023-03-31T18:53:42.053Z,10.90
2023-03-31T18:56:10.588Z,10.90
2023-03-31T18:58:39.731Z,11.00
2023-03-31T19:01:09.666Z,10.90
2023-03-31T19:03:38.043Z,10.80
2023-03-31T19:06:10.398Z,10.90
2023-03-31T19:08:39.468Z,10.80
2023-03-31T19:11:13.266Z,10.80
2023-03-31T19:13:43.144Z,10.90
2023-03-31T19:16:13.857Z,10.90
2023-03-31T19:18:43.411Z,10.80
2023-03-31T19:21:13.935Z,10.80
2023-03-31T19:23:42.525Z,10.80
2023-03-31T19:26:14.014Z,10.80
2023-03-31T19:28:42.592Z,10.80
2023-03-31T19:31:13.133Z,10.80
2023-03-31T19:33:43.348Z,10.70
2023-03-31T19:36:12.274Z,10.70
2023-03-31T19:38:42.515Z,10.80
2023-03-31T19:41:11.433Z,10.80
2023-03-31T19:43:39.643Z,10.80
2023-03-31T19:46:08.513Z,10.80
2023-03-31T19:48:38.507Z,10.70
2023-03-31T19:51:08.607Z,10.80
2023-03-31T19:53:40.094Z,10.80
2023-03-31T19:56:09.849Z,10.80
2023-03-31T19:58:40.054Z,10.80
2023-03-31T20:01:10.966Z,10.80
2023-03-31T20:03:42.085Z,10.80
2023-03-31T20:06:16.226Z,10.70
2023-03-31T20:08:44.885Z,10.80
2023-03-31T20:11:15.393Z,10.80
2023-03-31T20:13:45.094Z,10.80
2023-03-31T20:16:15.802Z,10.70
2023-03-31T20:18:55.674Z,10.70
2023-03-31T20:21:26.288Z,10.70
2023-03-31T20:23:57.389Z,10.70
2023-03-31T20:26:29.763Z,10.70
2023-03-31T20:28:59.035Z,10.70
2023-03-31T20:31:29.194Z,10.60
2023-03-31T20:34:00.068Z,10.70
2023-03-31T20:36:32.114Z,10.70
2023-03-31T20:39:04.227Z,10.70
2023-03-31T20:41:32.762Z,10.70
2023-03-31T20:44:01.442Z,10.60
2023-03-31T20:46:29.804Z,10.60
2023-03-31T20:49:00.873Z,10.60
2023-03-31T20:51:30.957Z,10.50
2023-03-31T20:54:00.556Z,10.50
2023-03-31T20:56:32.427Z,10.50
2023-03-31T20:59:02.108Z,10.50
2023-03-31T21:01:33.013Z,10.50
2023-03-31T21:04:06.360Z,10.50
2023-03-31T21:06:39.348Z,10.50
2023-03-31T21:09:07.897Z,10.50
2023-03-31T21:11:36.511Z,10.50
2023-03-31T21:14:06.094Z,10.50
2023-03-31T21:16:34.575Z,10.50
2023-03-31T21:19:04.899Z,10.40
2023-03-31T21:21:35.358Z,10.50
2023-03-31T21:24:03.589Z,10.50
2023-03-31T21:26:31.918Z,10.40
2023-03-31T21:29:00.207Z,10.40
2023-03-31T21:31:28.605Z,10.40
2023-03-31T21:33:58.068Z,10.40
2023-03-31T21:36:27.981Z,10.50
2023-03-31T21:38:57.538Z,10.40
2023-03-31T21:41:28.182Z,10.40
2023-03-31T21:43:57.661Z,10.40
2023-03-31T21:46:28.704Z,10.50
2023-03-31T21:48:58.142Z,10.40
